createdAt,value
2018-09-10T00:02:06.151Z,16.50
2018-09-10T00:04:37.769Z,16.40
2018-09-10T00:07:12.535Z,16.40
2018-09-10T00:09:45.160Z,16.40
2018-09-10T00:12:16.015Z,16.50
2018-09-10T00:14:46.911Z,16.50
2018-09-10T00:17:16.853Z,16.50
2018-09-10T00:19:47.226Z,16.50
2018-09-10T00:22:17.923Z,16.50
2018-09-10T00:24:48.093Z,16.50
2018-09-10T00:27:18.486Z,16.50
2018-09-10T00:29:48.573Z,16.40
2018-09-10T00:32:19.301Z,16.40
2018-09-10T00:34:49.821Z,16.30
2018-09-10T00:37:22.851Z,16.40
2018-09-10T00:39:52.961Z,16.30
2018-09-10T00:42:24.332Z,16.30
2018-09-10T00:44:54.310Z,16.20
2018-09-10T00:47:25.576Z,16.20
2018-09-10T00:49:56.065Z,16.20
2018-09-10T00:52:26.228Z,16.20
2018-09-10T00:54:56.683Z,16.10
2018-09-10T00:57:26.829Z,16.10
2018-09-10T00:59:56.863Z,16.10
2018-09-10T01:02:27.111Z,16.10
2018-09-10T01:04:57.166Z,16.10
2018-09-10T01:07:27.533Z,16.10
2018-09-10T01:09:58.725Z,16.10
2018-09-10T01:12:28.784Z,16.10
2018-09-10T01:14:59.047Z,16.10
2018-09-10T01:17:29.330Z,16.10
2018-09-10T01:20:00.032Z,16.10
2018-09-10T01:22:30.470Z,16.10
2018-09-10T01:25:01.399Z,16.10
2018-09-10T01:27:31.465Z,16.10
2018-09-10T01:30:01.678Z,16.10
2018-09-10T01:32:34.437Z,16.10
2018-09-10T01:35:06.395Z,16.10
2018-09-10T01:37:37.362Z,16.10
2018-09-10T01:40:07.840Z,16.10
2018-09-10T01:42:39.050Z,16.10
2018-09-10T01:45:11.127Z,16.10
2018-09-10T01:47:43.174Z,16.10
2018-09-10T01:50:17.194Z,16.10
2018-09-10T01:52:49.232Z,16.10
2018-09-10T01:55:19.410Z,16.10
2018-09-10T01:57:50.954Z,16.10
2018-09-10T02:00:21.672Z,16.10
2018-09-10T02:02:51.699Z,16.10
2018-09-10T02:05:22.299Z,16.10
2018-09-10T02:07:52.896Z,16.10
2018-09-10T02:10:23.353Z,16.10
2018-09-10T02:12:53.926Z,16.10
2018-09-10T02:15:24.133Z,16.10
2018-09-10T02:17:58.095Z,16.10
2018-09-10T02:20:28.206Z,16.10
2018-09-10T02:22:58.201Z,16.10
2018-09-10T02:25:28.379Z,16.10
2018-09-10T02:27:58.644Z,16.10
2018-09-10T02:30:29.189Z,16.10
2018-09-10T02:33:00.335Z,16.10
2018-09-10T02:35:30.550Z,16.10
2018-09-10T02:38:01.066Z,16.10
2018-09-10T02:40:32.089Z,16.10
2018-09-10T02:43:02.430Z,16.10
2018-09-10T02:45:33.227Z,16.10
2018-09-10T02:48:03.376Z,16.10
2018-09-10T02:50:33.875Z,16.10
2018-09-10T02:53:04.071Z,16.10
2018-09-10T02:55:34.019Z,16.10
2018-09-10T02:58:04.307Z,16.10
2018-09-10T03:00:35.756Z,16.10
2018-09-10T03:03:07.360Z,16.10
2018-09-10T03:05:40.564Z,16.10
2018-09-10T03:08:11.481Z,16.10
2018-09-10T03:10:41.562Z,16.10
2018-09-10T03:13:12.498Z,16.10
2018-09-10T03:15:43.286Z,16.10
2018-09-10T03:18:15.100Z,16.10
2018-09-10T03:20:45.141Z,16.10
2018-09-10T03:23:16.768Z,16.10
2018-09-10T03:25:47.003Z,16.10
2018-09-10T03:28:17.166Z,16.10
2018-09-10T03:30:47.468Z,16.10
2018-09-10T03:33:18.631Z,16.10
2018-09-10T03:35:49.686Z,16.10
2018-09-10T03:38:20.205Z,16.00
2018-09-10T03:40:50.423Z,16.00
2018-09-10T03:43:22.182Z,16.00
2018-09-10T03:45:52.489Z,16.00
2018-09-10T03:48:24.195Z,16.00
2018-09-10T03:50:54.539Z,16.00
2018-09-10T03:53:31.623Z,16.00
2018-09-10T03:56:02.143Z,15.90
2018-09-10T03:58:32.202Z,15.90
2018-09-10T04:01:03.189Z,15.90
2018-09-10T04:03:34.872Z,15.90
2018-09-10T04:06:09.755Z,15.90
2018-09-10T04:08:40.666Z,15.90
2018-09-10T04:11:11.878Z,15.90
2018-09-10T04:13:42.275Z,15.90
2018-09-10T04:16:12.465Z,15.80
2018-09-10T04:18:42.487Z,15.80
2018-09-10T04:21:13.391Z,15.80
2018-09-10T04:23:43.873Z,15.80
2018-09-10T04:26:14.094Z,15.80
2018-09-10T04:28:44.485Z,15.80
2018-09-10T04:31:14.473Z,15.80
2018-09-10T04:33:45.591Z,15.80
2018-09-10T04:36:17.578Z,15.80
2018-09-10T04:38:47.640Z,15.80
2018-09-10T04:41:17.875Z,15.80
2018-09-10T04:43:48.570Z,15.80
2018-09-10T04:46:18.510Z,15.80
2018-09-10T04:48:48.724Z,15.80
2018-09-10T04:51:18.904Z,15.80
2018-09-10T04:53:49.107Z,15.80
2018-09-10T04:56:19.184Z,15.80
2018-09-10T04:58:49.542Z,15.80
2018-09-10T05:01:20.094Z,15.80
2018-09-10T05:03:51.613Z,15.90
2018-09-10T05:06:22.093Z,15.80
2018-09-10T05:08:52.245Z,15.80
2018-09-10T05:11:24.160Z,15.80
2018-09-10T05:13:55.395Z,15.80
2018-09-10T05:16:27.458Z,15.80
2018-09-10T05:18:57.648Z,15.80
2018-09-10T05:21:27.886Z,15.80
2018-09-10T05:23:59.353Z,15.90
2018-09-10T05:26:30.832Z,15.80
2018-09-10T05:29:02.688Z,15.80
2018-09-10T05:31:33.073Z,15.80
2018-09-10T05:34:04.023Z,15.90
2018-09-10T05:36:35.393Z,15.90
2018-09-10T05:39:07.239Z,15.90
2018-09-10T05:41:37.406Z,15.90
2018-09-10T05:44:07.859Z,15.90
2018-09-10T05:46:38.722Z,15.90
2018-09-10T05:49:08.786Z,15.90
2018-09-10T05:51:40.191Z,15.90
2018-09-10T05:54:11.026Z,16.00
2018-09-10T05:56:42.953Z,16.00
2018-09-10T05:59:13.090Z,16.00
2018-09-10T06:01:45.249Z,16.00
2018-09-10T06:04:15.568Z,16.00
2018-09-10T06:06:45.885Z,16.00
2018-09-10T06:09:16.136Z,16.20
2018-09-10T06:11:46.144Z,16.30
2018-09-10T06:14:17.060Z,16.30
2018-09-10T06:16:47.264Z,16.40
2018-09-10T06:19:17.509Z,16.50
2018-09-10T06:21:50.173Z,16.50
2018-09-10T06:24:21.408Z,16.50
2018-09-10T06:26:52.055Z,16.60
2018-09-10T06:29:23.169Z,16.60
2018-09-10T06:31:54.841Z,16.60
2018-09-10T06:34:25.901Z,16.70
2018-09-10T06:36:55.991Z,16.70
2018-09-10T06:39:27.045Z,16.90
2018-09-10T06:41:57.737Z,17.00
2018-09-10T06:44:28.543Z,17.10
2018-09-10T06:46:59.917Z,17.10
2018-09-10T06:49:30.982Z,17.10
2018-09-10T06:52:02.149Z,17.00
2018-09-10T06:54:33.063Z,17.00
2018-09-10T06:57:03.888Z,17.00
2018-09-10T06:59:34.941Z,17.10
2018-09-10T07:02:05.789Z,17.10
2018-09-10T07:04:36.522Z,17.10
2018-09-10T07:07:07.213Z,17.10
2018-09-10T07:09:37.698Z,17.20
2018-09-10T07:12:07.688Z,17.20
2018-09-10T07:14:37.895Z,17.20
2018-09-10T07:17:08.476Z,17.30
2018-09-10T07:19:39.081Z,17.30
2018-09-10T07:22:09.285Z,17.30
2018-09-10T07:24:39.684Z,17.30
2018-09-10T07:27:10.327Z,17.30
2018-09-10T07:29:41.494Z,17.30
2018-09-10T07:32:11.794Z,17.30
2018-09-10T07:34:42.184Z,17.40
2018-09-10T07:37:12.455Z,17.40
2018-09-10T07:39:42.649Z,17.40
2018-09-10T07:42:14.338Z,17.50
2018-09-10T07:44:45.489Z,17.60
2018-09-10T07:47:16.108Z,17.70
2018-09-10T07:49:46.591Z,17.80
2018-09-10T07:52:16.776Z,17.90
2018-09-10T07:54:47.568Z,18.00
2018-09-10T07:57:18.027Z,18.20
2018-09-10T07:59:48.122Z,18.30
2018-09-10T08:02:18.313Z,18.50
2018-09-10T08:04:48.626Z,18.70
2018-09-10T08:07:18.934Z,18.90
2018-09-10T08:09:49.063Z,19.10
2018-09-10T08:12:19.410Z,19.30
2018-09-10T08:14:50.506Z,19.50
2018-09-10T08:17:20.596Z,19.70
2018-09-10T08:19:50.896Z,19.90
2018-09-10T08:22:22.119Z,19.90
2018-09-10T08:24:52.252Z,20.00
2018-09-10T08:27:22.580Z,20.00
2018-09-10T08:29:53.685Z,20.00
2018-09-10T08:32:24.108Z,20.00
2018-09-10T08:34:55.172Z,19.90
2018-09-10T08:37:25.346Z,19.90
2018-09-10T08:39:55.263Z,19.90
2018-09-10T08:42:25.189Z,19.80
2018-09-10T08:44:55.294Z,19.80
2018-09-10T08:47:25.445Z,19.80
2018-09-10T08:49:56.000Z,19.80
2018-09-10T08:52:26.235Z,19.80
2018-09-10T08:54:57.483Z,19.90
2018-09-10T08:57:27.772Z,20.00
2018-09-10T08:59:57.987Z,20.00
2018-09-10T09:02:28.152Z,20.00
2018-09-10T09:04:58.382Z,20.10
2018-09-10T09:07:28.805Z,20.10
2018-09-10T09:09:59.206Z,20.00
2018-09-10T09:12:30.024Z,20.00
2018-09-10T09:15:00.538Z,19.90
2018-09-10T09:17:31.636Z,19.90
2018-09-10T09:20:01.808Z,19.90
2018-09-10T09:22:31.905Z,19.90
2018-09-10T09:25:02.149Z,19.90
2018-09-10T09:27:32.703Z,19.90
2018-09-10T09:30:03.250Z,20.00
2018-09-10T09:32:33.402Z,20.10
2018-09-10T09:35:03.973Z,20.20
2018-09-10T09:37:39.080Z,20.20
2018-09-10T09:40:14.647Z,20.20
2018-09-10T09:42:50.062Z,20.30
2018-09-10T09:45:25.408Z,20.50
2018-09-10T09:47:55.546Z,20.50
2018-09-10T09:50:25.568Z,20.60
2018-09-10T09:52:56.008Z,20.70
2018-09-10T09:55:26.204Z,20.80
2018-09-10T09:57:56.902Z,20.80
2018-09-10T10:00:32.097Z,20.90
2018-09-10T10:03:07.240Z,21.00
2018-09-10T10:05:37.503Z,21.00
2018-09-10T10:08:08.026Z,21.00
2018-09-10T10:10:38.628Z,21.20
2018-09-10T10:13:08.951Z,21.20
2018-09-10T10:15:39.080Z,21.30
2018-09-10T10:18:09.401Z,21.30
2018-09-10T10:20:40.047Z,21.40
2018-09-10T10:23:10.142Z,21.40
2018-09-10T10:25:40.252Z,21.60
2018-09-10T10:28:10.809Z,21.70
2018-09-10T10:30:41.599Z,21.80
2018-09-10T10:33:11.661Z,21.80
2018-09-10T10:35:42.139Z,21.80
2018-09-10T10:38:12.756Z,21.80
2018-09-10T10:40:43.963Z,21.70
2018-09-10T10:43:14.392Z,21.60
2018-09-10T10:45:44.570Z,21.60
2018-09-10T10:48:15.711Z,21.60
2018-09-10T10:50:46.549Z,21.60
2018-09-10T10:53:17.383Z,21.50
2018-09-10T10:55:48.189Z,21.60
2018-09-10T10:58:19.495Z,21.70
2018-09-10T11:00:50.305Z,21.80
2018-09-10T11:03:20.632Z,21.80
2018-09-10T11:05:51.274Z,21.80
2018-09-10T11:08:21.864Z,21.80
2018-09-10T11:10:52.878Z,21.80
2018-09-10T11:13:23.416Z,21.80
2018-09-10T11:15:54.071Z,21.80
2018-09-10T11:18:24.561Z,21.80
2018-09-10T11:20:54.762Z,21.80
2018-09-10T11:23:25.328Z,22.00
2018-09-10T11:26:02.287Z,22.10
2018-09-10T11:28:32.548Z,22.00
2018-09-10T11:31:03.645Z,22.00
2018-09-10T11:33:33.763Z,22.10
2018-09-10T11:36:03.910Z,22.20
2018-09-10T11:38:33.894Z,22.20
2018-09-10T11:41:04.123Z,22.30
2018-09-10T11:43:34.424Z,22.30
2018-09-10T11:46:04.853Z,22.40
2018-09-10T11:48:36.146Z,22.60
2018-09-10T11:51:06.525Z,22.60
2018-09-10T11:53:36.748Z,22.50
2018-09-10T11:56:06.986Z,22.50
2018-09-10T11:58:37.338Z,22.60
2018-09-10T12:01:07.585Z,22.70
2018-09-10T12:03:37.992Z,22.70
2018-09-10T12:06:08.165Z,22.70
2018-09-10T12:08:38.160Z,22.80
2018-09-10T12:11:09.335Z,22.90
2018-09-10T12:13:39.659Z,23.20
2018-09-10T12:16:10.559Z,23.30
2018-09-10T12:18:40.679Z,23.20
2018-09-10T12:21:10.699Z,23.30
2018-09-10T12:23:40.802Z,23.40
2018-09-10T12:26:11.313Z,23.50
2018-09-10T12:28:41.713Z,23.60
2018-09-10T12:31:12.491Z,23.60
2018-09-10T12:33:42.597Z,23.60
2018-09-10T12:36:13.609Z,23.60
2018-09-10T12:38:44.280Z,23.50
2018-09-10T12:41:15.011Z,23.60
2018-09-10T12:43:45.490Z,23.60
2018-09-10T12:46:15.620Z,23.60
2018-09-10T12:48:45.960Z,23.80
2018-09-10T12:51:15.977Z,23.90
2018-09-10T12:53:46.200Z,24.00
2018-09-10T12:56:17.291Z,24.00
2018-09-10T12:58:47.859Z,24.10
2018-09-10T13:01:18.007Z,24.20
2018-09-10T13:03:48.357Z,24.30
2018-09-10T13:06:18.556Z,24.30
2018-09-10T13:08:48.939Z,24.20
2018-09-10T13:11:19.197Z,24.10
2018-09-10T13:13:49.909Z,24.00
2018-09-10T13:16:20.150Z,24.00
2018-09-10T13:18:50.411Z,24.10
2018-09-10T13:21:21.293Z,24.10
2018-09-10T13:23:51.202Z,24.10
2018-09-10T13:26:21.160Z,24.10
2018-09-10T13:28:51.596Z,24.00
2018-09-10T13:31:21.727Z,24.00
2018-09-10T13:33:52.618Z,23.90
2018-09-10T13:36:22.647Z,23.90
2018-09-10T13:38:53.129Z,23.90
2018-09-10T13:41:23.720Z,23.90
2018-09-10T13:43:54.083Z,23.90
2018-09-10T13:46:24.253Z,23.80
2018-09-10T13:48:54.603Z,23.80
2018-09-10T13:51:24.746Z,23.80
2018-09-10T13:53:55.609Z,23.70
2018-09-10T13:56:25.638Z,23.60
2018-09-10T13:58:55.512Z,23.50
2018-09-10T14:01:25.762Z,23.40
2018-09-10T14:03:56.265Z,23.30
2018-09-10T14:06:26.806Z,23.20
2018-09-10T14:08:56.712Z,23.10
2018-09-10T14:11:27.409Z,23.20
2018-09-10T14:13:57.502Z,23.30
2018-09-10T14:16:27.828Z,23.30
2018-09-10T14:18:58.979Z,23.30
2018-09-10T14:21:29.743Z,23.30
2018-09-10T14:24:00.038Z,23.30
2018-09-10T14:26:30.315Z,23.40
2018-09-10T14:29:01.420Z,23.60
2018-09-10T14:31:31.778Z,23.80
2018-09-10T14:34:02.026Z,23.80
2018-09-10T14:36:32.278Z,23.80
2018-09-10T14:39:02.339Z,23.90
2018-09-10T14:41:32.643Z,23.90
2018-09-10T14:44:02.691Z,23.90
2018-09-10T14:46:32.901Z,23.90
2018-09-10T14:49:03.708Z,23.90
2018-09-10T14:51:34.052Z,23.90
2018-09-10T14:54:04.321Z,24.00
2018-09-10T14:56:34.947Z,24.00
2018-09-10T14:59:05.316Z,24.30
2018-09-10T15:01:35.413Z,24.40
2018-09-10T15:04:05.436Z,24.60
2018-09-10T15:06:35.640Z,24.60
2018-09-10T15:09:09.721Z,24.70
2018-09-10T15:11:41.531Z,24.70
2018-09-10T15:14:11.566Z,24.70
2018-09-10T15:16:43.306Z,24.50
2018-09-10T15:19:13.974Z,24.40
2018-09-10T15:21:44.245Z,24.50
2018-09-10T15:24:14.993Z,24.40
2018-09-10T15:26:45.927Z,24.20
2018-09-10T15:29:17.610Z,24.00
2018-09-10T15:31:48.170Z,23.90
2018-09-10T15:34:18.365Z,23.90
2018-09-10T15:36:50.720Z,24.00
2018-09-10T15:39:21.140Z,24.00
2018-09-10T15:41:51.454Z,24.00
2018-09-10T15:44:22.005Z,24.00
2018-09-10T15:46:52.392Z,24.00
2018-09-10T15:49:22.571Z,24.10
2018-09-10T15:51:52.884Z,24.10
2018-09-10T15:54:24.024Z,24.30
2018-09-10T15:56:55.467Z,24.50
2018-09-10T15:59:29.412Z,24.90
2018-09-10T16:01:59.860Z,25.60
2018-09-10T16:04:29.992Z,26.00
2018-09-10T16:07:00.132Z,26.50
2018-09-10T16:09:30.189Z,26.90
2018-09-10T16:12:00.400Z,26.80
2018-09-10T16:14:30.662Z,26.40
2018-09-10T16:17:01.965Z,26.00
2018-09-10T16:19:32.128Z,25.70
2018-09-10T16:22:02.491Z,25.40
2018-09-10T16:24:33.534Z,25.20
2018-09-10T16:27:03.570Z,25.00
2018-09-10T16:29:34.956Z,24.90
2018-09-10T16:32:05.553Z,24.80
2018-09-10T16:34:35.571Z,24.70
2018-09-10T16:37:06.587Z,24.60
2018-09-10T16:39:36.568Z,24.50
2018-09-10T16:42:06.707Z,24.40
2018-09-10T16:44:36.971Z,24.20
2018-09-10T16:47:07.370Z,24.10
2018-09-10T16:49:38.031Z,24.00
2018-09-10T16:52:08.107Z,23.80
2018-09-10T16:54:38.168Z,23.70
2018-09-10T16:57:08.434Z,23.60
2018-09-10T16:59:39.626Z,23.60
2018-09-10T17:02:10.315Z,23.40
2018-09-10T17:04:41.200Z,23.30
2018-09-10T17:07:11.422Z,23.20
2018-09-10T17:09:41.578Z,23.10
2018-09-10T17:12:11.720Z,23.10
2018-09-10T17:14:42.632Z,23.10
2018-09-10T17:17:13.165Z,23.20
2018-09-10T17:19:44.639Z,23.10
2018-09-10T17:22:14.716Z,23.10
2018-09-10T17:24:46.201Z,23.00
2018-09-10T17:27:16.951Z,23.00
2018-09-10T17:29:47.348Z,22.90
2018-09-10T17:32:18.921Z,22.80
2018-09-10T17:34:49.491Z,22.60
2018-09-10T17:37:19.698Z,22.50
2018-09-10T17:39:50.025Z,22.50
2018-09-10T17:42:20.148Z,22.40
2018-09-10T17:44:51.314Z,22.30
2018-09-10T17:47:22.747Z,22.30
2018-09-10T17:49:53.298Z,22.30
2018-09-10T17:52:23.917Z,22.30
2018-09-10T17:54:54.458Z,22.20
2018-09-10T17:57:24.603Z,22.20
2018-09-10T17:59:55.730Z,22.20
2018-09-10T18:02:26.290Z,22.10
2018-09-10T18:04:56.660Z,22.10
2018-09-10T18:07:29.005Z,22.00
2018-09-10T18:09:59.554Z,22.00
2018-09-10T18:12:29.506Z,22.00
2018-09-10T18:14:59.653Z,22.00
2018-09-10T18:17:30.968Z,22.00
2018-09-10T18:20:03.467Z,22.00
2018-09-10T18:22:33.469Z,21.90
2018-09-10T18:25:05.624Z,21.90
2018-09-10T18:27:36.428Z,21.90
2018-09-10T18:30:07.919Z,21.90
2018-09-10T18:32:38.568Z,21.80
2018-09-10T18:35:09.731Z,21.80
2018-09-10T18:37:41.696Z,21.70
2018-09-10T18:40:12.190Z,21.70
2018-09-10T18:42:44.442Z,21.70
2018-09-10T18:45:14.816Z,21.60
2018-09-10T18:47:45.357Z,21.50
2018-09-10T18:50:22.295Z,21.50
2018-09-10T18:52:53.686Z,21.40
2018-09-10T18:55:23.831Z,21.30
2018-09-10T18:57:54.180Z,21.30
2018-09-10T19:00:24.391Z,21.20
2018-09-10T19:02:54.655Z,21.20
2018-09-10T19:05:24.838Z,21.10
2018-09-10T19:07:55.077Z,21.00
2018-09-10T19:10:25.287Z,20.90
2018-09-10T19:12:56.100Z,20.90
2018-09-10T19:15:26.399Z,20.90
2018-09-10T19:17:56.966Z,20.80
2018-09-10T19:20:27.041Z,20.80
2018-09-10T19:22:57.220Z,20.80
2018-09-10T19:25:27.241Z,20.70
2018-09-10T19:27:57.800Z,20.70
2018-09-10T19:30:28.010Z,20.70
2018-09-10T19:32:58.200Z,20.60
2018-09-10T19:35:28.921Z,20.60
2018-09-10T19:37:59.137Z,20.60
2018-09-10T19:40:29.055Z,20.60
2018-09-10T19:42:59.103Z,20.60
2018-09-10T19:45:29.221Z,20.50
2018-09-10T19:47:59.522Z,20.50
2018-09-10T19:50:29.796Z,20.50
2018-09-10T19:53:00.091Z,20.50
2018-09-10T19:55:30.374Z,20.50
2018-09-10T19:58:00.479Z,20.50
2018-09-10T20:00:37.268Z,20.50
2018-09-10T20:03:07.477Z,20.50
2018-09-10T20:05:37.711Z,20.50
2018-09-10T20:08:08.155Z,20.50
2018-09-10T20:10:38.787Z,20.50
2018-09-10T20:13:09.374Z,20.50
2018-09-10T20:15:39.746Z,20.50
2018-09-10T20:18:10.069Z,20.50
2018-09-10T20:20:40.018Z,20.50
2018-09-10T20:23:10.103Z,20.50
2018-09-10T20:25:40.448Z,20.50
2018-09-10T20:28:10.977Z,20.50
2018-09-10T20:30:41.061Z,20.50
2018-09-10T20:33:11.211Z,20.50
2018-09-10T20:35:41.424Z,20.50
2018-09-10T20:38:11.723Z,20.40
2018-09-10T20:40:41.898Z,20.40
2018-09-10T20:43:12.084Z,20.40
2018-09-10T20:45:42.313Z,20.40
2018-09-10T20:48:12.716Z,20.40
2018-09-10T20:50:42.862Z,20.50
2018-09-10T20:53:13.924Z,20.50
2018-09-10T20:55:44.432Z,20.50
2018-09-10T20:58:14.699Z,20.50
2018-09-10T21:00:44.913Z,20.60
2018-09-10T21:03:14.969Z,20.60
2018-09-10T21:05:45.389Z,20.60
2018-09-10T21:08:15.566Z,20.60
2018-09-10T21:10:45.816Z,20.70
2018-09-10T21:13:15.950Z,20.70
2018-09-10T21:15:46.131Z,20.70
2018-09-10T21:18:16.152Z,20.70
2018-09-10T21:20:46.422Z,20.70
2018-09-10T21:23:17.353Z,20.70
2018-09-10T21:25:47.387Z,20.80
2018-09-10T21:28:17.391Z,20.80
2018-09-10T21:30:47.785Z,20.80
2018-09-10T21:33:17.988Z,20.80
2018-09-10T21:35:48.325Z,20.80
2018-09-10T21:38:18.927Z,20.80
2018-09-10T21:40:48.966Z,20.80
2018-09-10T21:43:19.133Z,20.70
2018-09-10T21:45:49.055Z,20.80
2018-09-10T21:48:19.619Z,20.70
2018-09-10T21:50:49.807Z,20.70
2018-09-10T21:53:20.367Z,20.70
2018-09-10T21:55:50.820Z,20.70
2018-09-10T21:58:20.970Z,20.70
2018-09-10T22:00:54.064Z,20.80
2018-09-10T22:03:24.459Z,20.70
2018-09-10T22:05:55.340Z,20.70
2018-09-10T22:08:28.599Z,20.70
2018-09-10T22:10:59.563Z,20.80
2018-09-10T22:13:31.053Z,20.80
2018-09-10T22:16:01.134Z,20.70
2018-09-10T22:18:32.254Z,20.70
2018-09-10T22:21:02.744Z,20.80
2018-09-10T22:23:33.875Z,20.80
2018-09-10T22:26:04.379Z,20.80
2018-09-10T22:28:34.951Z,20.80
2018-09-10T22:31:05.230Z,20.80
2018-09-10T22:33:36.435Z,20.80
2018-09-10T22:36:07.066Z,20.80
2018-09-10T22:38:37.605Z,20.70
2018-09-10T22:41:07.546Z,20.70
2018-09-10T22:43:38.524Z,20.70
2018-09-10T22:46:09.568Z,20.60
2018-09-10T22:48:40.552Z,20.60
2018-09-10T22:51:10.953Z,20.60
2018-09-10T22:53:41.122Z,20.60
2018-09-10T22:56:12.134Z,20.50
2018-09-10T22:58:42.145Z,20.30
2018-09-10T23:01:12.494Z,20.50
2018-09-10T23:03:42.702Z,20.60
2018-09-10T23:06:13.579Z,20.60
2018-09-10T23:08:43.649Z,20.60
2018-09-10T23:11:13.941Z,20.60
2018-09-10T23:13:43.884Z,20.60
2018-09-10T23:16:13.984Z,20.70
2018-09-10T23:18:44.264Z,20.70
2018-09-10T23:21:14.839Z,20.70
2018-09-10T23:23:45.127Z,20.70
2018-09-10T23:26:15.201Z,20.70
2018-09-10T23:28:45.454Z,20.70
2018-09-10T23:31:15.721Z,20.70
2018-09-10T23:33:46.641Z,20.80
2018-09-10T23:36:16.826Z,20.80
2018-09-10T23:38:48.473Z,20.80
2018-09-10T23:41:19.667Z,20.80
2018-09-10T23:43:50.121Z,20.70
2018-09-10T23:46:20.639Z,20.70
2018-09-10T23:48:51.168Z,20.70
2018-09-10T23:51:21.211Z,20.70
2018-09-10T23:53:51.514Z,20.70
2018-09-10T23:56:21.655Z,20.80
2018-09-10T23:58:51.708Z,20.80
